Time;durP1;ratioP1;P1;durP2;ratioP2;P2;SDS_P1;SDS_P2;PMS_P1;PMS_P2;Temp;Humidity;BMP_temperature;BMP_pressure;BME280_temperature;BME280_humidity;BME280_pressure;Samples;Min_cycle;Max_cycle;Signal;HPM_P1;HPM_P2
2024/03/06 00:02:09;;;;;;;17.90;10.93;;;6.00;99.90;;;;;;5053848;28;20200;-72
2024/03/06 00:04:35;;;;;;;17.20;11.25;;;6.00;99.90;;;;;;5098633;28;20204;-72
2024/03/06 00:07:01;;;;;;;19.67;11.82;;;6.00;99.90;;;;;;5088552;28;20617;-72
2024/03/06 00:09:27;;;;;;;22.42;12.02;;;6.00;99.90;;;;;;5094658;28;20661;-71
2024/03/06 00:11:54;;;;;;;20.35;12.60;;;6.00;99.90;;;;;;5092777;28;20193;-73
2024/03/06 00:14:21;;;;;;;17.35;11.15;;;6.00;99.90;;;;;;5096838;28;20182;-72
2024/03/06 00:16:49;;;;;;;21.25;12.27;;;6.00;99.90;;;;;;5090206;28;20188;-73
2024/03/06 00:19:19;;;;;;;22.00;11.93;;;6.00;99.90;;;;;;5091810;28;20193;-73
2024/03/06 00:21:45;;;;;;;21.38;12.60;;;6.00;99.90;;;;;;5094958;28;20580;-72
2024/03/06 00:24:14;;;;;;;21.58;12.20;;;6.00;99.90;;;;;;5093630;28;20215;-74
2024/03/06 00:26:47;;;;;;;22.92;12.48;;;6.00;99.90;;;;;;5094537;28;20209;-72
2024/03/06 00:29:13;;;;;;;19.95;12.40;;;6.00;99.90;;;;;;5074287;28;20556;-72
2024/03/06 00:31:46;;;;;;;22.98;11.60;;;6.00;99.90;;;;;;5095871;28;20182;-71
2024/03/06 00:34:15;;;;;;;18.70;12.00;;;6.00;99.90;;;;;;5092779;28;20276;-71
2024/03/06 00:36:41;;;;;;;19.35;12.27;;;6.00;99.90;;;;;;5093831;28;20189;-71
2024/03/06 00:39:07;;;;;;;22.02;12.48;;;6.10;99.90;;;;;;5095276;28;20189;-72
2024/03/06 00:41:34;;;;;;;17.83;11.50;;;6.10;99.90;;;;;;5090337;28;20684;-72
2024/03/06 00:44:00;;;;;;;20.88;12.30;;;6.00;99.90;;;;;;5096272;28;20221;-72
2024/03/06 00:46:26;;;;;;;17.38;11.65;;;6.10;99.90;;;;;;5089800;28;20245;-73
2024/03/06 00:48:52;;;;;;;19.38;11.45;;;6.10;99.90;;;;;;5096590;28;20193;-71
2024/03/06 00:51:17;;;;;;;20.38;12.15;;;6.10;99.90;;;;;;5094930;28;20190;-72
2024/03/06 00:53:44;;;;;;;18.65;12.00;;;6.10;99.90;;;;;;5091748;28;20213;-73
2024/03/06 00:56:10;;;;;;;21.40;11.82;;;6.00;99.90;;;;;;5088529;28;20213;-72
2024/03/06 00:58:35;;;;;;;20.27;11.77;;;6.00;99.90;;;;;;5093827;28;20582;-72
2024/03/06 01:01:01;;;;;;;18.17;11.88;;;6.00;99.90;;;;;;5092100;28;20216;-73
2024/03/06 01:03:27;;;;;;;18.75;11.52;;;6.00;99.90;;;;;;5093444;28;20250;-72
2024/03/06 01:05:53;;;;;;;20.73;11.77;;;6.00;99.90;;;;;;5092252;28;20217;-71
2024/03/06 01:08:19;;;;;;;18.60;11.77;;;6.00;99.90;;;;;;5094973;28;20190;-72
2024/03/06 01:10:45;;;;;;;19.60;11.45;;;6.00;99.90;;;;;;5070802;28;20193;-71
2024/03/06 01:13:11;;;;;;;19.33;11.50;;;6.00;99.90;;;;;;5092591;28;20181;-71
2024/03/06 01:15:37;;;;;;;17.60;11.35;;;6.00;99.90;;;;;;5074719;28;20262;-72
2024/03/06 01:18:03;;;;;;;16.13;10.32;;;6.00;99.90;;;;;;5092690;28;20228;-71
2024/03/06 01:20:29;;;;;;;20.80;11.77;;;6.00;99.90;;;;;;5094545;28;20222;-71
2024/03/06 01:22:55;;;;;;;21.65;11.73;;;5.90;99.90;;;;;;5095282;28;20193;-71
2024/03/06 01:25:21;;;;;;;18.58;11.02;;;6.00;99.90;;;;;;5093506;28;21407;-70
2024/03/06 01:27:48;;;;;;;19.58;10.93;;;6.00;99.90;;;;;;5094852;28;20563;-71
2024/03/06 01:30:14;;;;;;;20.45;11.05;;;6.00;99.90;;;;;;5091578;28;20231;-71
2024/03/06 01:32:40;;;;;;;19.90;11.60;;;6.00;99.90;;;;;;5093174;28;20193;-70
2024/03/06 01:35:06;;;;;;;19.48;10.88;;;6.00;99.90;;;;;;5089512;28;20193;-72
2024/03/06 01:37:32;;;;;;;22.83;11.85;;;6.00;99.90;;;;;;5093881;28;20189;-72
2024/03/06 01:39:58;;;;;;;18.08;11.35;;;6.00;99.90;;;;;;5093009;28;20182;-72
2024/03/06 01:42:24;;;;;;;20.90;11.77;;;6.00;99.90;;;;;;5091915;28;20192;-74
2024/03/06 01:44:50;;;;;;;17.33;11.55;;;6.00;99.90;;;;;;5094304;28;20592;-72
2024/03/06 01:47:15;;;;;;;21.60;12.57;;;6.00;99.90;;;;;;5090137;28;20308;-72
2024/03/06 01:49:42;;;;;;;19.08;11.57;;;6.00;99.90;;;;;;5091152;28;20965;-73
2024/03/06 01:52:11;;;;;;;17.40;11.10;;;5.90;99.90;;;;;;5097739;28;20533;-72
2024/03/06 01:54:38;;;;;;;19.92;11.40;;;6.00;99.90;;;;;;5096944;28;20185;-72
2024/03/06 01:57:05;;;;;;;20.65;11.70;;;5.90;99.90;;;;;;5098161;28;20185;-74
2024/03/06 01:59:31;;;;;;;18.35;11.65;;;5.90;99.90;;;;;;5097930;28;20174;-71
2024/03/06 02:01:57;;;;;;;20.77;11.82;;;5.90;99.90;;;;;;5074005;28;20201;-72
2024/03/06 02:04:27;;;;;;;20.02;11.90;;;5.90;99.90;;;;;;5094389;28;20222;-73
2024/03/06 02:06:53;;;;;;;19.45;12.27;;;5.90;99.90;;;;;;5095436;28;20245;-73
2024/03/06 02:09:19;;;;;;;18.90;11.63;;;5.90;99.90;;;;;;5093963;28;20296;-72
2024/03/06 02:11:45;;;;;;;18.85;12.18;;;5.90;99.90;;;;;;5099575;28;20207;-74
2024/03/06 02:14:12;;;;;;;19.27;11.63;;;5.80;99.90;;;;;;5094947;28;20272;-72
2024/03/06 02:16:41;;;;;;;19.33;11.65;;;5.80;99.90;;;;;;5095182;28;20280;-71
2024/03/06 02:19:08;;;;;;;19.27;11.40;;;5.80;99.90;;;;;;5076594;28;20639;-74
2024/03/06 02:21:34;;;;;;;16.38;11.60;;;5.80;99.90;;;;;;5077824;28;20637;-74
2024/03/06 02:24:00;;;;;;;22.67;12.20;;;5.80;99.90;;;;;;5097140;28;20259;-72
2024/03/06 02:26:26;;;;;;;20.73;12.45;;;5.70;99.90;;;;;;5100123;28;20252;-74
2024/03/06 02:28:53;;;;;;;21.92;12.10;;;5.70;99.90;;;;;;5099537;28;20185;-71
2024/03/06 02:31:20;;;;;;;20.23;12.30;;;5.70;99.90;;;;;;5096290;28;20189;-73
2024/03/06 02:33:47;;;;;;;20.15;13.13;;;5.70;99.90;;;;;;5094544;28;20348;-73
2024/03/06 02:36:20;;;;;;;24.30;13.13;;;5.70;99.90;;;;;;5096888;28;20211;-72
2024/03/06 02:38:46;;;;;;;23.67;13.07;;;5.60;99.90;;;;;;5095181;28;20218;-72
2024/03/06 02:41:13;;;;;;;20.90;12.90;;;5.70;99.90;;;;;;5094822;28;20254;-73
2024/03/06 02:43:39;;;;;;;22.27;12.88;;;5.60;99.90;;;;;;5095129;28;20228;-73
2024/03/06 02:46:05;;;;;;;18.77;12.48;;;5.60;99.90;;;;;;5097657;28;20672;-73
2024/03/06 02:48:31;;;;;;;23.55;12.23;;;5.60;99.90;;;;;;5095064;28;20260;-74
2024/03/06 02:50:57;;;;;;;20.10;12.27;;;5.60;99.90;;;;;;5096621;28;20182;-72
2024/03/06 02:53:23;;;;;;;20.98;13.23;;;5.60;99.90;;;;;;5096552;28;20193;-73
2024/03/06 02:55:49;;;;;;;20.80;12.82;;;5.60;99.90;;;;;;5092972;28;20193;-72
2024/03/06 02:58:16;;;;;;;20.15;12.88;;;5.60;99.90;;;;;;5094663;28;20193;-73
2024/03/06 03:00:43;;;;;;;20.50;13.18;;;5.60;99.90;;;;;;5097681;28;20271;-72
2024/03/06 03:03:11;;;;;;;20.52;12.30;;;5.60;99.90;;;;;;5092783;28;20186;-72
2024/03/06 03:05:38;;;;;;;24.00;13.55;;;5.60;99.90;;;;;;5097969;28;20216;-72
2024/03/06 03:08:05;;;;;;;22.48;12.82;;;5.60;99.90;;;;;;5089483;28;20539;-72
2024/03/06 03:10:31;;;;;;;22.30;13.13;;;5.60;99.90;;;;;;5032168;28;20178;-72
2024/03/06 03:12:56;;;;;;;21.08;13.73;;;5.60;99.90;;;;;;5093845;28;20193;-71
2024/03/06 03:15:22;;;;;;;20.65;13.05;;;5.50;99.90;;;;;;5093347;28;20182;-72
2024/03/06 03:17:48;;;;;;;19.45;13.02;;;5.60;99.90;;;;;;5092133;28;20301;-72
2024/03/06 03:20:16;;;;;;;25.38;12.65;;;5.50;99.90;;;;;;5096611;28;20268;-71
2024/03/06 03:22:42;;;;;;;19.42;12.40;;;5.50;99.90;;;;;;5098320;28;20224;-72
2024/03/06 03:25:12;;;;;;;23.17;13.68;;;5.50;99.90;;;;;;5095250;28;20253;-73
2024/03/06 03:27:43;;;;;;;24.58;13.32;;;5.50;99.90;;;;;;5092438;28;20313;-73
2024/03/06 03:30:12;;;;;;;23.88;14.43;;;5.60;99.90;;;;;;5097501;28;20193;-70
2024/03/06 03:32:38;;;;;;;21.77;13.85;;;5.50;99.90;;;;;;5096179;28;20189;-71
2024/03/06 03:35:07;;;;;;;22.83;13.82;;;5.50;99.90;;;;;;5093582;28;20234;-71
2024/03/06 03:37:33;;;;;;;22.48;14.20;;;5.50;99.90;;;;;;5094549;28;20181;-71
2024/03/06 03:39:59;;;;;;;20.98;14.23;;;5.50;99.90;;;;;;5094861;28;20189;-71
2024/03/06 03:42:25;;;;;;;23.42;13.88;;;5.50;99.90;;;;;;5094849;28;20219;-72
2024/03/06 03:44:51;;;;;;;21.73;14.27;;;5.50;99.90;;;;;;5096490;28;20248;-71
2024/03/06 03:47:17;;;;;;;20.88;13.73;;;5.50;99.90;;;;;;5095898;28;20579;-72
2024/03/06 03:49:43;;;;;;;21.50;13.93;;;5.50;99.90;;;;;;5087338;28;20196;-70
2024/03/06 03:52:09;;;;;;;24.83;14.48;;;5.50;99.90;;;;;;5081787;28;20539;-73
2024/03/06 03:54:35;;;;;;;26.27;14.73;;;5.50;99.90;;;;;;5093087;28;20263;-73
2024/03/06 03:57:01;;;;;;;25.75;14.48;;;5.50;99.90;;;;;;5094822;28;20182;-71
2024/03/06 03:59:27;;;;;;;21.83;13.93;;;5.50;99.90;;;;;;5092266;28;20191;-70
2024/03/06 04:01:52;;;;;;;22.88;13.98;;;5.60;99.90;;;;;;5092454;28;21902;-72
2024/03/06 04:04:18;;;;;;;22.83;15.05;;;5.50;99.90;;;;;;5093861;28;20189;-71
2024/03/06 04:06:45;;;;;;;22.38;14.73;;;5.50;99.90;;;;;;5096696;28;20247;-71
2024/03/06 04:09:11;;;;;;;24.33;14.70;;;5.50;99.90;;;;;;5090780;28;20645;-71
2024/03/06 04:11:37;;;;;;;24.80;14.30;;;5.50;99.90;;;;;;5095639;28;20181;-72
2024/03/06 04:14:06;;;;;;;22.92;14.82;;;5.60;99.90;;;;;;5097649;28;20194;-72
2024/03/06 04:16:33;;;;;;;26.77;15.23;;;5.60;99.90;;;;;;5091604;28;20222;-72
2024/03/06 04:18:58;;;;;;;27.33;15.60;;;5.60;99.90;;;;;;5095147;28;20198;-70
2024/03/06 04:21:24;;;;;;;26.27;15.10;;;5.60;99.90;;;;;;5094159;28;20296;-72
2024/03/06 04:23:50;;;;;;;25.00;15.93;;;5.60;99.90;;;;;;5087830;28;20197;-72
2024/03/06 04:26:17;;;;;;;23.52;15.02;;;5.60;99.90;;;;;;5068339;28;20225;-71
2024/03/06 04:28:43;;;;;;;25.45;17.25;;;5.60;99.90;;;;;;5085352;28;20435;-70
2024/03/06 04:31:09;;;;;;;27.02;16.35;;;5.60;99.90;;;;;;5095418;28;20720;-72
2024/03/06 04:33:35;;;;;;;23.15;15.80;;;5.60;99.90;;;;;;5089105;28;20193;-70
2024/03/06 04:36:04;;;;;;;24.52;16.42;;;5.60;99.90;;;;;;5092824;28;20193;-71
2024/03/06 04:38:29;;;;;;;25.65;15.95;;;5.60;99.90;;;;;;5094453;28;20198;-70
2024/03/06 04:40:55;;;;;;;25.10;16.02;;;5.60;99.90;;;;;;5079699;28;20665;-70
2024/03/06 04:43:21;;;;;;;24.55;15.00;;;5.50;99.90;;;;;;5056747;28;20311;-71
2024/03/06 04:45:46;;;;;;;26.00;16.13;;;5.50;99.90;;;;;;5089708;28;20213;-73
2024/03/06 04:48:12;;;;;;;24.45;16.27;;;5.50;99.90;;;;;;5090344;28;20677;-72
2024/03/06 04:50:38;;;;;;;24.77;16.25;;;5.50;99.90;;;;;;5095955;28;20587;-72
2024/03/06 04:53:04;;;;;;;25.65;16.33;;;5.50;99.90;;;;;;5097429;28;20272;-73
2024/03/06 04:55:30;;;;;;;30.13;16.83;;;5.60;99.90;;;;;;5090374;28;20186;-72
2024/03/06 04:57:56;;;;;;;31.23;17.50;;;5.50;99.90;;;;;;5094694;28;20203;-71
2024/03/06 05:00:23;;;;;;;27.48;16.65;;;5.50;99.90;;;;;;5092673;28;20185;-72
2024/03/06 05:02:51;;;;;;;25.00;15.40;;;5.60;99.90;;;;;;5089458;28;20292;-71
2024/03/06 05:05:17;;;;;;;25.10;15.73;;;5.60;99.90;;;;;;5087554;28;20209;-71
2024/03/06 05:07:43;;;;;;;23.42;16.10;;;5.60;99.90;;;;;;5092506;28;21571;-72
2024/03/06 05:10:09;;;;;;;24.58;16.17;;;5.60;99.90;;;;;;5093133;28;20194;-72
2024/03/06 05:12:35;;;;;;;28.75;16.63;;;5.60;99.90;;;;;;5073767;28;20720;-71
2024/03/06 05:15:00;;;;;;;25.55;16.63;;;5.60;99.90;;;;;;5097148;28;20652;-72
2024/03/06 05:17:26;;;;;;;24.77;16.15;;;5.60;99.90;;;;;;5089953;28;20225;-71
2024/03/06 05:19:52;;;;;;;32.20;16.77;;;5.60;99.90;;;;;;5089871;28;20225;-73
2024/03/06 05:22:18;;;;;;;28.85;16.80;;;5.60;99.90;;;;;;5093704;28;20185;-71
2024/03/06 05:24:44;;;;;;;25.45;15.63;;;5.60;99.90;;;;;;5093712;28;20228;-71
2024/03/06 05:27:13;;;;;;;23.75;16.35;;;5.60;99.90;;;;;;5092780;28;20294;-71
2024/03/06 05:29:39;;;;;;;25.88;15.57;;;5.60;99.90;;;;;;5093663;28;20264;-71
2024/03/06 05:32:07;;;;;;;26.08;15.95;;;5.60;99.90;;;;;;5095429;28;20242;-72
2024/03/06 05:34:33;;;;;;;25.67;16.55;;;5.60;99.90;;;;;;5096453;28;20313;-72
2024/03/06 05:36:59;;;;;;;26.40;16.67;;;5.60;99.90;;;;;;5093465;28;20196;-72
2024/03/06 05:39:25;;;;;;;27.45;15.85;;;5.60;99.90;;;;;;5093383;28;20202;-72
2024/03/06 05:41:51;;;;;;;27.10;15.27;;;5.60;99.90;;;;;;5095507;28;20196;-73
2024/03/06 05:44:16;;;;;;;24.55;15.80;;;5.60;99.90;;;;;;5094915;28;20200;-71
2024/03/06 05:46:42;;;;;;;25.70;15.85;;;5.60;99.90;;;;;;5090660;28;20213;-71
2024/03/06 05:49:08;;;;;;;24.58;15.98;;;5.60;99.90;;;;;;5091496;28;20193;-71
2024/03/06 05:51:33;;;;;;;23.88;15.88;;;5.60;99.90;;;;;;5099215;28;20193;-73
2024/03/06 05:53:59;;;;;;;24.85;16.27;;;5.60;99.90;;;;;;5096553;28;20191;-73
2024/03/06 05:56:25;;;;;;;25.17;16.90;;;5.60;99.90;;;;;;5094614;28;20281;-72
2024/03/06 05:58:51;;;;;;;25.10;16.70;;;5.60;99.90;;;;;;5086688;28;20212;-72
2024/03/06 06:01:20;;;;;;;28.80;15.27;;;5.60;99.90;;;;;;5093398;27;20186;-71
2024/03/06 06:03:49;;;;;;;29.13;17.15;;;5.60;99.90;;;;;;5086599;28;20679;-71
2024/03/06 06:06:21;;;;;;;26.83;16.50;;;5.60;99.90;;;;;;5089354;28;20684;-70
2024/03/06 06:08:47;;;;;;;26.55;16.52;;;5.60;99.90;;;;;;5089827;28;20198;-71
2024/03/06 06:11:13;;;;;;;30.75;16.92;;;5.60;99.90;;;;;;5089366;28;20226;-71
2024/03/06 06:13:41;;;;;;;25.38;15.57;;;5.60;99.90;;;;;;5093114;28;20210;-73
2024/03/06 06:16:07;;;;;;;27.75;16.38;;;5.60;99.90;;;;;;5094893;28;20186;-72
2024/03/06 06:18:33;;;;;;;25.05;15.77;;;5.70;99.90;;;;;;5093248;28;20203;-73
2024/03/06 06:20:59;;;;;;;28.63;16.75;;;5.60;99.90;;;;;;5094937;28;20196;-74
2024/03/06 06:23:25;;;;;;;25.35;16.38;;;5.60;99.90;;;;;;5090192;28;20200;-71
2024/03/06 06:25:51;;;;;;;28.30;17.20;;;5.70;99.90;;;;;;5091808;28;20651;-72
2024/03/06 06:28:17;;;;;;;24.80;16.30;;;5.70;99.90;;;;;;5096438;28;20180;-70
2024/03/06 06:30:43;;;;;;;27.52;16.55;;;5.70;99.90;;;;;;5095264;28;20224;-71
2024/03/06 06:33:09;;;;;;;24.65;16.17;;;5.70;99.90;;;;;;5099072;28;20246;-71
2024/03/06 06:35:35;;;;;;;27.23;17.35;;;5.70;99.90;;;;;;5069490;28;20182;-73
2024/03/06 06:38:01;;;;;;;27.95;17.40;;;5.70;99.90;;;;;;5089526;28;20185;-73
2024/03/06 06:40:27;;;;;;;25.83;16.90;;;5.70;99.90;;;;;;5095154;28;20193;-73
2024/03/06 06:42:54;;;;;;;25.65;15.25;;;5.70;99.90;;;;;;5050276;28;20973;-73
2024/03/06 06:45:21;;;;;;;27.05;17.10;;;5.70;99.90;;;;;;5075007;28;20194;-73
2024/03/06 06:47:48;;;;;;;23.80;16.42;;;5.70;99.90;;;;;;5094364;28;20185;-74
2024/03/06 06:50:14;;;;;;;26.10;16.95;;;5.80;99.90;;;;;;5091597;28;20231;-72
2024/03/06 06:52:43;;;;;;;27.60;16.42;;;5.80;99.90;;;;;;5096320;28;20194;-73
2024/03/06 06:55:11;;;;;;;26.10;17.33;;;5.80;99.90;;;;;;5087403;28;20569;-73
2024/03/06 06:57:38;;;;;;;28.77;16.58;;;5.80;99.90;;;;;;5093207;28;21006;-73
2024/03/06 07:00:10;;;;;;;34.58;17.85;;;5.80;99.90;;;;;;5098308;28;20193;-70
2024/03/06 07:02:38;;;;;;;28.95;17.25;;;5.80;99.90;;;;;;5095900;28;20276;-71
2024/03/06 07:05:05;;;;;;;33.90;17.50;;;5.90;99.90;;;;;;5093694;28;20666;-71
2024/03/06 07:07:30;;;;;;;26.13;16.67;;;5.80;99.90;;;;;;5094983;28;20205;-73
2024/03/06 07:09:56;;;;;;;27.55;17.70;;;5.80;99.90;;;;;;5095643;28;20204;-70
2024/03/06 07:12:22;;;;;;;29.95;16.98;;;5.90;99.90;;;;;;5089293;28;20266;-72
2024/03/06 07:14:48;;;;;;;28.65;17.65;;;6.00;99.90;;;;;;5091430;28;20186;-72
2024/03/06 07:17:13;;;;;;;29.48;16.75;;;6.00;99.90;;;;;;5090621;28;20198;-72
2024/03/06 07:19:39;;;;;;;26.55;17.67;;;6.00;99.90;;;;;;5091997;28;20192;-73
2024/03/06 07:22:05;;;;;;;29.48;18.00;;;6.00;99.90;;;;;;5096193;28;20185;-73
2024/03/06 07:24:31;;;;;;;30.10;17.80;;;6.00;99.90;;;;;;5091220;28;20186;-74
2024/03/06 07:26:57;;;;;;;29.23;17.48;;;6.10;99.90;;;;;;5091852;28;20266;-74
2024/03/06 07:29:23;;;;;;;27.52;18.00;;;6.10;99.90;;;;;;5093198;28;20181;-73
2024/03/06 07:31:49;;;;;;;30.55;17.55;;;6.10;99.90;;;;;;5095141;28;20196;-73
2024/03/06 07:34:14;;;;;;;25.35;17.05;;;6.10;99.90;;;;;;5091653;28;20220;-73
2024/03/06 07:36:40;;;;;;;28.75;18.08;;;6.10;99.90;;;;;;5092724;28;20201;-74
2024/03/06 07:39:07;;;;;;;27.92;17.02;;;6.10;99.90;;;;;;5094571;28;20185;-73
2024/03/06 07:41:33;;;;;;;28.65;16.98;;;6.20;99.90;;;;;;5092204;28;20197;-72
2024/03/06 07:44:00;;;;;;;25.00;16.92;;;6.20;99.90;;;;;;5092610;28;20197;-73
2024/03/06 07:46:26;;;;;;;27.90;17.10;;;6.20;99.90;;;;;;5089801;28;20654;-73
2024/03/06 07:48:51;;;;;;;26.67;16.50;;;6.30;99.90;;;;;;5091836;28;20193;-74
2024/03/06 07:51:17;;;;;;;30.08;17.23;;;6.30;99.90;;;;;;5096823;28;20193;-72
2024/03/06 07:53:43;;;;;;;27.75;17.40;;;6.30;99.90;;;;;;5090745;28;20196;-72
2024/03/06 07:56:12;;;;;;;29.63;17.90;;;6.30;99.90;;;;;;5095822;28;20182;-71
2024/03/06 07:58:38;;;;;;;31.55;18.55;;;6.40;99.90;;;;;;5088919;28;20205;-75
2024/03/06 08:01:04;;;;;;;30.05;17.63;;;6.40;99.90;;;;;;5088907;28;20276;-74
2024/03/06 08:03:30;;;;;;;25.10;17.55;;;6.40;99.90;;;;;;5094466;28;20190;-74
2024/03/06 08:05:56;;;;;;;29.40;18.27;;;6.40;99.90;;;;;;5085628;28;20694;-74
2024/03/06 08:08:22;;;;;;;28.30;17.42;;;6.40;99.90;;;;;;5088410;28;20996;-73
2024/03/06 08:10:48;;;;;;;28.13;17.25;;;6.30;99.90;;;;;;5089608;28;20650;-75
2024/03/06 08:13:14;;;;;;;27.83;18.48;;;6.40;99.90;;;;;;5091005;28;20196;-72
2024/03/06 08:15:40;;;;;;;29.17;17.65;;;6.40;99.90;;;;;;5096031;28;20193;-73
2024/03/06 08:18:06;;;;;;;26.83;17.35;;;6.40;99.90;;;;;;5093818;28;20260;-73
2024/03/06 08:20:32;;;;;;;28.55;17.58;;;6.50;99.90;;;;;;5091796;28;20648;-71
2024/03/06 08:22:58;;;;;;;27.83;16.83;;;6.50;99.90;;;;;;5091217;28;20258;-74
2024/03/06 08:25:24;;;;;;;32.17;18.02;;;6.60;99.90;;;;;;5090914;28;20221;-74
2024/03/06 08:27:50;;;;;;;31.17;17.45;;;6.60;99.90;;;;;;5089760;28;20194;-73
2024/03/06 08:30:16;;;;;;;26.13;17.17;;;6.60;99.90;;;;;;5097057;28;20235;-74
2024/03/06 08:32:43;;;;;;;31.83;19.85;;;6.60;99.90;;;;;;5090304;28;21082;-72
2024/03/06 08:35:12;;;;;;;25.77;18.08;;;6.70;99.90;;;;;;5087746;28;20251;-73
2024/03/06 08:37:41;;;;;;;26.60;17.45;;;6.70;99.90;;;;;;5086776;28;20189;-72
2024/03/06 08:40:10;;;;;;;33.13;18.35;;;6.70;99.90;;;;;;5092220;28;20174;-73
2024/03/06 08:42:36;;;;;;;27.50;17.83;;;6.80;99.90;;;;;;5095431;28;20288;-72
2024/03/06 08:45:02;;;;;;;28.65;17.40;;;6.90;99.90;;;;;;5073597;28;20230;-72
2024/03/06 08:47:28;;;;;;;33.63;20.10;;;7.00;99.90;;;;;;5089676;28;20661;-71
2024/03/06 08:49:54;;;;;;;30.80;17.50;;;7.00;99.90;;;;;;5091877;28;20291;-72
2024/03/06 08:52:20;;;;;;;34.55;18.35;;;7.10;99.90;;;;;;5087354;28;20272;-73
2024/03/06 08:54:46;;;;;;;30.50;17.20;;;7.20;99.90;;;;;;5090132;28;20204;-72
2024/03/06 08:57:12;;;;;;;27.77;17.95;;;7.20;99.90;;;;;;5092654;28;20189;-73
2024/03/06 08:59:38;;;;;;;30.20;18.15;;;7.30;99.90;;;;;;5097012;28;20193;-72
2024/03/06 09:02:15;;;;;;;29.80;18.33;;;7.30;99.90;;;;;;5101571;28;20242;-73
2024/03/06 09:04:44;;;;;;;29.45;18.15;;;7.30;99.90;;;;;;5098319;28;20688;-74
2024/03/06 09:07:10;;;;;;;28.70;18.45;;;7.30;99.90;;;;;;5092775;28;20233;-74
2024/03/06 09:09:37;;;;;;;28.83;18.27;;;7.30;99.90;;;;;;5096387;27;20214;-72
2024/03/06 09:12:07;;;;;;;30.17;18.23;;;7.40;99.90;;;;;;5095654;28;20196;-74
2024/03/06 09:14:34;;;;;;;29.45;18.05;;;7.40;99.90;;;;;;5100361;28;20242;-73
2024/03/06 09:17:00;;;;;;;31.77;18.45;;;7.50;99.90;;;;;;5098648;27;20544;-74
2024/03/06 09:19:25;;;;;;;29.98;18.13;;;7.60;99.90;;;;;;5074759;28;20181;-73
2024/03/06 09:21:51;;;;;;;26.60;17.70;;;7.70;99.90;;;;;;5094161;28;20193;-74
2024/03/06 09:24:17;;;;;;;30.73;18.80;;;7.80;99.90;;;;;;5097256;28;20627;-74
2024/03/06 09:26:44;;;;;;;30.27;18.50;;;7.90;99.90;;;;;;5098234;28;20237;-72
2024/03/06 09:29:10;;;;;;;30.83;18.83;;;8.00;99.90;;;;;;5086862;28;20662;-73
2024/03/06 09:31:36;;;;;;;32.35;19.63;;;8.00;99.90;;;;;;5097817;28;20204;-75
2024/03/06 09:34:02;;;;;;;32.10;18.92;;;8.10;99.90;;;;;;5077920;28;20205;-73
2024/03/06 09:36:28;;;;;;;33.13;18.85;;;8.20;99.90;;;;;;5095196;28;20235;-73
2024/03/06 09:38:55;;;;;;;30.83;20.23;;;8.30;99.90;;;;;;5096918;28;20224;-74
2024/03/06 09:41:22;;;;;;;33.72;19.48;;;8.30;99.90;;;;;;5093355;28;20194;-75
2024/03/06 09:43:48;;;;;;;31.70;18.77;;;8.40;99.90;;;;;;5093883;28;20189;-73
2024/03/06 09:46:14;;;;;;;32.50;18.73;;;8.40;99.90;;;;;;5087211;28;20226;-73
2024/03/06 09:48:47;;;;;;;32.42;20.08;;;8.40;99.90;;;;;;5096441;28;20643;-74
2024/03/06 09:51:13;;;;;;;38.22;19.60;;;8.50;99.90;;;;;;5094121;28;20284;-74
2024/03/06 09:53:45;;;;;;;31.20;19.40;;;8.60;99.90;;;;;;5094660;28;20684;-74
2024/03/06 09:56:11;;;;;;;31.58;18.58;;;8.70;99.90;;;;;;5095868;28;20178;-73
2024/03/06 09:58:37;;;;;;;29.23;18.67;;;8.80;99.90;;;;;;5096792;28;20786;-72
2024/03/06 10:01:04;;;;;;;31.70;19.85;;;8.90;99.90;;;;;;5092218;28;20618;-74
2024/03/06 10:03:30;;;;;;;31.20;19.10;;;9.00;99.90;;;;;;5098556;28;20208;-73
2024/03/06 10:05:56;;;;;;;31.92;18.27;;;9.10;99.90;;;;;;5096757;28;20226;-74
2024/03/06 10:08:22;;;;;;;33.40;20.15;;;9.10;99.90;;;;;;5094789;28;20280;-74
2024/03/06 10:10:51;;;;;;;29.67;19.67;;;9.10;99.90;;;;;;5094020;28;20173;-74
2024/03/06 10:13:17;;;;;;;32.92;19.45;;;9.10;99.90;;;;;;5101254;28;20189;-73
2024/03/06 10:16:02;;;;;;;32.05;19.30;;;9.20;99.90;;;;;;5097712;28;20192;-75
2024/03/06 10:18:29;;;;;;;33.03;19.55;;;9.20;99.90;;;;;;5092671;28;20189;-72
2024/03/06 10:20:58;;;;;;;30.98;19.02;;;9.20;99.90;;;;;;5095877;28;20215;-74
2024/03/06 10:23:24;;;;;;;32.55;19.55;;;9.20;99.90;;;;;;5089244;28;20217;-73
2024/03/06 10:25:52;;;;;;;30.83;20.40;;;9.30;99.90;;;;;;5094829;28;20320;-73
2024/03/06 10:28:19;;;;;;;37.08;19.40;;;9.30;99.90;;;;;;5093545;28;20285;-74
2024/03/06 10:30:45;;;;;;;33.80;20.27;;;9.30;99.90;;;;;;5067114;28;20273;-73
2024/03/06 10:33:13;;;;;;;33.75;20.10;;;9.40;99.90;;;;;;5091482;28;20246;-74
2024/03/06 10:35:41;;;;;;;36.15;20.23;;;9.50;99.90;;;;;;5094485;28;20863;-73
2024/03/06 10:38:08;;;;;;;37.40;22.08;;;9.50;99.90;;;;;;5087296;28;20625;-74
2024/03/06 10:40:36;;;;;;;31.85;20.42;;;9.50;99.90;;;;;;5095373;28;20521;-72
2024/03/06 10:43:05;;;;;;;33.83;21.35;;;9.40;99.90;;;;;;5098350;28;20188;-73
2024/03/06 10:45:43;;;;;;;34.78;21.05;;;9.50;99.90;;;;;;5095533;28;20177;-73
2024/03/06 10:48:12;;;;;;;35.63;21.70;;;9.60;99.90;;;;;;5091885;28;20599;-73
2024/03/06 10:50:41;;;;;;;39.13;21.23;;;9.60;99.90;;;;;;5097106;28;20192;-74
2024/03/06 10:53:12;;;;;;;30.98;21.10;;;9.60;99.90;;;;;;5091135;28;20203;-74
2024/03/06 10:55:39;;;;;;;32.45;21.48;;;9.70;99.90;;;;;;5095603;28;20669;-73
2024/03/06 10:58:08;;;;;;;40.40;21.92;;;9.80;99.90;;;;;;5092606;28;20203;-72
2024/03/06 11:00:37;;;;;;;34.95;22.52;;;9.90;99.90;;;;;;5096686;28;20197;-75
2024/03/06 11:03:07;;;;;;;39.22;24.70;;;9.90;99.90;;;;;;5094603;28;20185;-72
2024/03/06 11:05:36;;;;;;;36.55;23.25;;;9.90;99.90;;;;;;5072667;28;21240;-72
2024/03/06 11:08:03;;;;;;;40.20;22.95;;;10.00;99.90;;;;;;5092683;28;20194;-73
2024/03/06 11:10:35;;;;;;;33.63;21.30;;;10.00;99.90;;;;;;5089129;28;20196;-73
2024/03/06 11:13:03;;;;;;;37.22;21.55;;;10.10;99.90;;;;;;5091740;28;20185;-74
2024/03/06 11:15:28;;;;;;;36.25;22.48;;;10.20;99.90;;;;;;5067181;28;20664;-75
2024/03/06 11:17:54;;;;;;;36.75;22.00;;;10.20;99.90;;;;;;5092600;28;20215;-73
2024/03/06 11:20:22;;;;;;;41.88;23.33;;;10.20;99.90;;;;;;5086785;28;20185;-72
2024/03/06 11:23:02;;;;;;;40.90;24.98;;;10.20;99.90;;;;;;5094471;28;20193;-73
2024/03/06 11:25:50;;;;;;;43.90;24.02;;;10.20;99.90;;;;;;5096884;28;20768;-72
2024/03/06 11:28:22;;;;;;;39.90;23.00;;;10.20;99.90;;;;;;5091661;28;20234;-72
2024/03/06 11:30:55;;;;;;;36.15;21.95;;;10.30;99.90;;;;;;5093931;28;20339;-72
2024/03/06 11:33:21;;;;;;;37.55;23.13;;;10.30;99.90;;;;;;5069110;28;20548;-72
2024/03/06 11:36:17;;;;;;;40.80;22.63;;;10.40;99.90;;;;;;5090728;28;20198;-74
2024/03/06 11:38:52;;;;;;;38.00;23.23;;;10.40;99.90;;;;;;4995956;28;20227;-74
2024/03/06 11:41:44;;;;;;;39.08;24.30;;;10.50;99.90;;;;;;5012129;28;20797;-76
2024/03/06 11:44:18;;;;;;;40.10;24.55;;;10.60;99.90;;;;;;5030778;28;20778;-73
2024/03/06 11:46:45;;;;;;;40.97;23.65;;;10.60;99.90;;;;;;5029026;28;20224;-75
2024/03/06 11:49:25;;;;;;;41.35;24.40;;;10.70;99.90;;;;;;5038015;28;20191;-74
2024/03/06 11:51:58;;;;;;;46.22;25.48;;;10.70;99.90;;;;;;5022290;28;20234;-75
2024/03/06 11:54:26;;;;;;;40.08;24.75;;;10.70;99.90;;;;;;5030183;28;20683;-73
2024/03/06 11:56:55;;;;;;;42.42;24.05;;;10.60;99.90;;;;;;5035867;28;20195;-73
2024/03/06 11:59:24;;;;;;;42.30;25.42;;;10.70;99.90;;;;;;5008438;28;20558;-73
2024/03/06 12:01:52;;;;;;;43.72;25.08;;;10.70;99.90;;;;;;5033311;28;22189;-73
2024/03/06 12:04:19;;;;;;;46.35;24.83;;;10.60;99.90;;;;;;5029450;28;20198;-72
2024/03/06 12:06:45;;;;;;;41.40;24.30;;;10.70;99.90;;;;;;5031896;28;20219;-72
2024/03/06 12:09:11;;;;;;;42.58;25.80;;;10.70;99.90;;;;;;5035277;28;20217;-72
2024/03/06 12:11:37;;;;;;;44.92;26.80;;;10.80;99.90;;;;;;5031534;28;20213;-72
2024/03/06 12:14:03;;;;;;;40.92;25.08;;;10.90;99.90;;;;;;5032902;28;20191;-73
2024/03/06 12:16:29;;;;;;;41.75;24.17;;;10.90;99.90;;;;;;5027584;28;20195;-71
2024/03/06 12:18:58;;;;;;;44.67;25.60;;;10.80;99.90;;;;;;5029771;28;20257;-74
2024/03/06 12:21:34;;;;;;;46.40;25.02;;;10.90;99.90;;;;;;5034128;28;20195;-72
2024/03/06 12:24:08;;;;;;;45.38;26.13;;;11.00;99.90;;;;;;5025025;28;20198;-74
2024/03/06 12:26:34;;;;;;;45.05;25.17;;;11.10;99.90;;;;;;5008866;28;20227;-73
2024/03/06 12:29:07;;;;;;;44.20;26.80;;;11.10;99.90;;;;;;5036228;28;20290;-75
2024/03/06 12:31:35;;;;;;;50.28;31.92;;;11.00;99.90;;;;;;5033701;28;20187;-71
2024/03/06 12:34:03;;;;;;;42.45;25.48;;;11.10;99.90;;;;;;5033964;28;20202;-72
2024/03/06 12:36:31;;;;;;;44.80;26.08;;;11.20;99.90;;;;;;5010128;28;20188;-75